createdAt,value
2018-11-06T00:01:50.609Z,25.33
2018-11-06T00:04:20.454Z,25.70
2018-11-06T00:06:49.133Z,24.33
2018-11-06T00:09:17.706Z,25.73
2018-11-06T00:11:46.135Z,25.93
2018-11-06T00:14:14.714Z,25.07
2018-11-06T00:16:43.206Z,25.10
2018-11-06T00:19:11.774Z,25.27
2018-11-06T00:21:40.546Z,25.73
2018-11-06T00:24:09.050Z,26.03
2018-11-06T00:26:37.642Z,25.67
2018-11-06T00:29:06.225Z,24.90
2018-11-06T00:31:34.769Z,26.00
2018-11-06T00:34:03.289Z,26.63
2018-11-06T00:36:31.851Z,26.23
2018-11-06T00:39:00.356Z,26.00
2018-11-06T00:41:28.864Z,25.53
2018-11-06T00:43:57.348Z,25.93
2018-11-06T00:46:25.862Z,25.47
2018-11-06T00:48:54.321Z,26.57
2018-11-06T00:51:22.808Z,25.60
2018-11-06T00:53:51.308Z,25.83
2018-11-06T00:56:19.822Z,26.07
2018-11-06T00:58:48.932Z,25.50
2018-11-06T01:01:17.429Z,25.90
2018-11-06T01:03:53.984Z,25.03
2018-11-06T01:06:24.126Z,25.20
2018-11-06T01:08:52.638Z,26.27
2018-11-06T01:11:21.150Z,27.90
2018-11-06T01:13:49.698Z,26.70
2018-11-06T01:16:18.189Z,26.37
2018-11-06T01:18:46.704Z,24.40
2018-11-06T01:21:15.266Z,24.73
2018-11-06T01:23:43.776Z,24.97
2018-11-06T01:26:12.273Z,24.87
2018-11-06T01:28:40.781Z,25.33
2018-11-06T01:31:09.388Z,24.87
2018-11-06T01:33:37.984Z,24.93
2018-11-06T01:36:06.521Z,25.93
2018-11-06T01:38:35.051Z,25.50
2018-11-06T01:41:03.561Z,25.10
2018-11-06T01:43:32.042Z,24.83
2018-11-06T01:46:00.652Z,24.43
2018-11-06T01:48:29.172Z,24.50
2018-11-06T01:50:57.668Z,24.50
2018-11-06T01:53:26.150Z,24.93
2018-11-06T01:55:54.621Z,24.10
2018-11-06T01:58:23.102Z,25.50
2018-11-06T02:00:51.591Z,24.37
2018-11-06T02:03:21.229Z,24.37
2018-11-06T02:05:49.731Z,24.30
2018-11-06T02:08:18.291Z,24.00
2018-11-06T02:10:47.367Z,24.30
2018-11-06T02:13:15.891Z,25.33
2018-11-06T02:15:44.422Z,24.60
2018-11-06T02:18:12.967Z,24.93
2018-11-06T02:20:41.491Z,25.33
2018-11-06T02:23:09.983Z,23.90
2018-11-06T02:25:38.775Z,23.87
2018-11-06T02:28:07.418Z,23.83
2018-11-06T02:30:35.941Z,24.53
2018-11-06T02:33:04.601Z,23.00
2018-11-06T02:35:33.091Z,23.00
2018-11-06T02:38:01.581Z,22.77
2018-11-06T02:40:30.059Z,21.80
2018-11-06T02:42:58.644Z,22.10
2018-11-06T02:45:27.130Z,21.97
2018-11-06T02:47:55.606Z,23.30
2018-11-06T02:50:24.127Z,23.33
2018-11-06T02:52:52.606Z,22.70
2018-11-06T02:55:21.220Z,22.40
2018-11-06T02:57:49.812Z,23.43
2018-11-06T03:00:19.213Z,23.77
2018-11-06T03:02:48.294Z,23.77
2018-11-06T03:05:16.902Z,22.97
2018-11-06T03:07:45.576Z,22.87
2018-11-06T03:10:14.978Z,23.20
2018-11-06T03:12:44.195Z,22.40
2018-11-06T03:15:13.783Z,22.83
2018-11-06T03:17:42.455Z,22.67
2018-11-06T03:20:11.800Z,23.03
2018-11-06T03:22:40.873Z,22.33
2018-11-06T03:25:09.470Z,20.50
2018-11-06T03:27:38.258Z,20.70
2018-11-06T03:30:10.094Z,20.80
2018-11-06T03:32:38.588Z,20.43
2018-11-06T03:35:07.494Z,19.70
2018-11-06T03:37:36.044Z,20.30
2018-11-06T03:40:05.188Z,20.47
2018-11-06T03:42:33.798Z,21.17
2018-11-06T03:45:02.390Z,20.00
2018-11-06T03:47:30.934Z,20.63
2018-11-06T03:49:59.411Z,20.13
2018-11-06T03:52:28.008Z,19.97
2018-11-06T03:54:56.518Z,19.43
2018-11-06T03:57:25.254Z,18.87
2018-11-06T03:59:53.771Z,19.17
2018-11-06T04:02:22.460Z,19.40
2018-11-06T04:04:50.974Z,19.70
2018-11-06T04:07:19.460Z,18.27
2018-11-06T04:09:47.957Z,17.90
2018-11-06T04:12:16.439Z,18.00
2018-11-06T04:14:44.916Z,19.47
2018-11-06T04:17:13.400Z,17.23
2018-11-06T04:19:42.133Z,17.40
2018-11-06T04:22:10.671Z,17.93
2018-11-06T04:24:39.203Z,17.03
2018-11-06T04:27:07.756Z,16.97
2018-11-06T04:29:36.358Z,17.60
2018-11-06T04:32:05.050Z,16.57
2018-11-06T04:34:33.532Z,16.50
2018-11-06T04:37:02.016Z,16.17
2018-11-06T04:39:30.511Z,17.27
2018-11-06T04:41:59.064Z,15.97
2018-11-06T04:44:27.642Z,15.80
2018-11-06T04:46:56.248Z,16.13
2018-11-06T04:49:25.042Z,15.83
2018-11-06T04:51:53.512Z,15.37
2018-11-06T04:54:22.960Z,16.33
2018-11-06T04:56:51.450Z,15.27
2018-11-06T04:59:20.116Z,15.93
2018-11-06T05:02:13.842Z,15.13
2018-11-06T05:04:42.267Z,15.40
2018-11-06T05:07:50.140Z,14.60
2018-11-06T05:10:18.620Z,14.33
2018-11-06T05:12:47.094Z,15.40
2018-11-06T05:15:16.314Z,14.63
2018-11-06T05:17:45.220Z,13.70
2018-11-06T05:20:15.442Z,13.47
2018-11-06T05:22:44.795Z,13.73
2018-11-06T05:25:13.314Z,12.90
2018-11-06T05:27:41.786Z,12.97
2018-11-06T05:30:11.529Z,13.27
2018-11-06T05:32:41.352Z,12.93
2018-11-06T05:35:10.439Z,13.17
2018-11-06T05:37:39.225Z,12.43
2018-11-06T05:40:19.026Z,11.90
2018-11-06T05:42:47.601Z,11.53
2018-11-06T05:45:16.111Z,12.27
2018-11-06T05:47:44.705Z,12.10
2018-11-06T05:50:13.309Z,11.03
2018-11-06T05:52:41.877Z,11.17
2018-11-06T05:55:10.363Z,11.27
2018-11-06T05:57:38.961Z,11.33
2018-11-06T06:00:07.921Z,10.67
2018-11-06T06:02:36.519Z,10.77
2018-11-06T06:05:06.162Z,10.53
2018-11-06T06:07:34.947Z,10.10
2018-11-06T06:10:03.637Z,9.87
2018-11-06T06:12:32.167Z,10.33
2018-11-06T06:15:00.640Z,10.17
2018-11-06T06:17:29.169Z,9.33
2018-11-06T06:19:57.645Z,8.80
2018-11-06T06:22:26.181Z,9.77
2018-11-06T06:24:54.645Z,9.57
2018-11-06T06:27:23.135Z,9.53
2018-11-06T06:29:51.694Z,9.90
2018-11-06T06:32:20.813Z,10.17
2018-11-06T06:34:49.491Z,10.57
2018-11-06T06:37:17.988Z,9.60
2018-11-06T06:39:46.560Z,9.47
2018-11-06T06:42:15.117Z,9.40
2018-11-06T06:44:43.605Z,9.57
2018-11-06T06:47:12.069Z,9.20
2018-11-06T06:49:40.697Z,9.40
2018-11-06T06:52:09.338Z,9.40
2018-11-06T06:54:38.098Z,9.40
2018-11-06T06:57:06.498Z,9.87
2018-11-06T06:59:35.112Z,10.20
2018-11-06T07:02:03.616Z,9.83
2018-11-06T07:04:32.160Z,9.50
2018-11-06T07:07:00.625Z,9.20
2018-11-06T07:09:29.136Z,9.10
2018-11-06T07:11:57.664Z,8.87
2018-11-06T07:14:26.196Z,8.70
2018-11-06T07:16:54.701Z,9.53
2018-11-06T07:19:23.204Z,8.33
2018-11-06T07:21:52.292Z,9.00
2018-11-06T07:24:20.774Z,8.50
2018-11-06T07:26:49.270Z,8.43
2018-11-06T07:29:18.020Z,9.00
2018-11-06T07:31:46.614Z,8.53
2018-11-06T07:34:15.318Z,8.87
2018-11-06T07:36:43.914Z,8.30
2018-11-06T07:39:13.055Z,9.43
2018-11-06T07:41:41.762Z,9.03
2018-11-06T07:44:11.376Z,8.30
2018-11-06T07:46:40.046Z,8.80
2018-11-06T07:49:11.027Z,8.17
2018-11-06T07:51:39.516Z,8.50
2018-11-06T07:54:08.098Z,8.00
2018-11-06T07:56:36.618Z,8.70
2018-11-06T07:59:05.410Z,8.40
2018-11-06T08:01:33.885Z,8.63
2018-11-06T08:04:02.454Z,8.70
2018-11-06T08:06:30.955Z,8.33
2018-11-06T08:08:59.898Z,8.90
2018-11-06T08:11:29.321Z,8.80
2018-11-06T08:13:57.782Z,8.30
2018-11-06T08:16:27.541Z,8.40
2018-11-06T08:18:56.064Z,8.87
2018-11-06T08:21:24.543Z,8.60
2018-11-06T08:23:53.074Z,8.00
2018-11-06T08:26:21.548Z,8.90
2018-11-06T08:28:50.049Z,8.73
2018-11-06T08:31:18.770Z,7.93
2018-11-06T08:33:47.081Z,7.93
2018-11-06T08:36:15.770Z,8.33
2018-11-06T08:38:44.241Z,7.93
2018-11-06T08:41:12.739Z,8.53
2018-11-06T08:43:41.382Z,8.30
2018-11-06T08:46:09.901Z,8.07
2018-11-06T08:48:38.410Z,8.43
2018-11-06T08:51:06.895Z,7.87
2018-11-06T08:53:35.408Z,8.33
2018-11-06T08:56:03.921Z,7.83
2018-11-06T08:58:32.466Z,8.07
2018-11-06T09:01:00.951Z,8.13
2018-11-06T09:03:29.513Z,7.90
2018-11-06T09:05:58.019Z,7.83
2018-11-06T09:08:26.514Z,8.07
2018-11-06T09:10:55.085Z,7.87
2018-11-06T09:13:23.615Z,7.53
2018-11-06T09:15:52.115Z,7.33
2018-11-06T09:18:20.622Z,7.07
2018-11-06T09:20:55.470Z,6.77
2018-11-06T09:23:23.993Z,7.40
2018-11-06T09:25:52.844Z,6.90
2018-11-06T09:28:21.315Z,7.30
2018-11-06T09:30:49.871Z,7.03
2018-11-06T09:33:18.349Z,6.57
2018-11-06T09:35:46.868Z,7.30
2018-11-06T09:38:15.381Z,7.07
2018-11-06T09:40:43.905Z,7.43
2018-11-06T09:43:12.785Z,7.67
2018-11-06T09:45:41.335Z,7.53
2018-11-06T09:48:09.847Z,7.53
2018-11-06T09:50:38.346Z,7.53
2018-11-06T09:53:06.917Z,7.00
2018-11-06T09:55:35.475Z,7.43
2018-11-06T09:58:04.973Z,6.73
2018-11-06T10:00:33.477Z,7.27
2018-11-06T10:03:02.093Z,7.13
2018-11-06T10:05:30.600Z,6.83
2018-11-06T10:07:59.099Z,6.67
2018-11-06T10:10:27.625Z,6.10
2018-11-06T10:12:57.078Z,6.33
2018-11-06T10:15:25.584Z,6.23
2018-11-06T10:17:54.286Z,5.80
2018-11-06T10:20:22.791Z,6.10
2018-11-06T10:22:51.265Z,6.27
2018-11-06T10:25:20.877Z,6.03
2018-11-06T10:27:49.963Z,5.93
2018-11-06T10:30:19.558Z,5.80
2018-11-06T10:32:50.257Z,5.33
2018-11-06T10:35:18.759Z,5.50
2018-11-06T10:37:47.279Z,5.53
2018-11-06T10:40:18.492Z,5.60
2018-11-06T10:42:47.670Z,5.33
2018-11-06T10:45:17.575Z,5.40
2018-11-06T10:47:46.266Z,5.33
2018-11-06T10:50:15.689Z,5.53
2018-11-06T10:52:45.944Z,5.97
2018-11-06T10:55:14.472Z,5.63
2018-11-06T10:57:43.306Z,5.23
2018-11-06T11:00:18.301Z,4.83
2018-11-06T11:02:52.090Z,5.63
2018-11-06T11:05:22.146Z,5.47
2018-11-06T11:07:50.862Z,5.17
2018-11-06T11:10:19.394Z,5.20
2018-11-06T11:12:47.882Z,5.60
2018-11-06T11:15:16.869Z,5.07
2018-11-06T11:17:45.415Z,5.23
2018-11-06T11:20:19.549Z,5.27
2018-11-06T11:22:48.066Z,4.90
2018-11-06T11:25:16.956Z,5.27
2018-11-06T11:27:46.432Z,5.13
2018-11-06T11:30:15.976Z,5.17
2018-11-06T11:32:45.979Z,4.70
2018-11-06T11:35:14.973Z,5.13
2018-11-06T11:37:43.584Z,4.87
2018-11-06T11:40:13.991Z,5.53
2018-11-06T11:42:43.308Z,4.93
2018-11-06T11:45:13.096Z,5.00
2018-11-06T11:47:41.988Z,4.90
2018-11-06T11:50:12.118Z,4.93
2018-11-06T11:52:41.561Z,4.63
2018-11-06T11:55:10.514Z,5.13
2018-11-06T11:57:39.619Z,4.53
2018-11-06T12:00:14.565Z,4.90
2018-11-06T12:02:46.273Z,5.27
2018-11-06T12:05:14.835Z,5.57
2018-11-06T12:07:45.539Z,5.70
2018-11-06T12:10:14.305Z,5.23
2018-11-06T12:12:43.715Z,5.23
2018-11-06T12:15:15.048Z,5.10
2018-11-06T12:17:44.644Z,5.37
2018-11-06T12:20:13.766Z,5.43
2018-11-06T12:22:42.985Z,5.23
2018-11-06T12:25:12.287Z,5.20
2018-11-06T12:27:40.548Z,5.07
2018-11-06T12:30:11.225Z,5.20
2018-11-06T12:32:40.117Z,5.03
2018-11-06T12:35:10.361Z,4.80
2018-11-06T12:37:42.062Z,4.70
2018-11-06T12:40:11.733Z,4.63
2018-11-06T12:42:41.561Z,5.20
2018-11-06T12:45:12.026Z,5.00
2018-11-06T12:47:40.976Z,5.07
2018-11-06T12:50:09.968Z,5.33
2018-11-06T12:52:39.157Z,4.80
2018-11-06T12:55:09.216Z,4.77
2018-11-06T12:57:37.899Z,4.57
2018-11-06T13:00:12.935Z,4.40
2018-11-06T13:02:41.440Z,4.60
2018-11-06T13:05:10.266Z,4.60
2018-11-06T13:07:40.104Z,4.63
2018-11-06T13:10:09.604Z,4.63
2018-11-06T13:12:38.904Z,4.83
2018-11-06T13:15:08.019Z,4.67
2018-11-06T13:17:37.736Z,4.03
2018-11-06T13:20:08.167Z,4.17
2018-11-06T13:22:37.034Z,3.93
2018-11-06T13:25:06.697Z,3.20
2018-11-06T13:27:35.550Z,3.43
2018-11-06T13:30:04.218Z,3.50
2018-11-06T13:32:32.823Z,3.30
2018-11-06T13:35:02.223Z,3.30
2018-11-06T13:37:30.734Z,3.20
2018-11-06T13:39:59.390Z,3.70
2018-11-06T13:42:27.997Z,3.50
2018-11-06T13:44:56.785Z,3.07
2018-11-06T13:47:25.648Z,3.13
2018-11-06T13:49:54.138Z,3.43
2018-11-06T13:52:22.804Z,3.40
2018-11-06T13:54:53.674Z,2.83
2018-11-06T13:57:32.390Z,3.10
2018-11-06T14:00:01.746Z,3.20
2018-11-06T14:02:30.328Z,3.20
2018-11-06T14:04:59.942Z,3.20
2018-11-06T14:07:28.455Z,2.97
2018-11-06T14:09:56.944Z,3.07
2018-11-06T14:12:25.542Z,3.20
2018-11-06T14:14:54.018Z,3.00
2018-11-06T14:17:24.703Z,3.50
2018-11-06T14:19:53.330Z,3.30
2018-11-06T14:22:21.802Z,3.23
2018-11-06T14:24:50.274Z,3.20
2018-11-06T14:27:19.407Z,3.30
2018-11-06T14:29:48.068Z,3.10
2018-11-06T14:32:16.846Z,3.20
2018-11-06T14:34:45.352Z,3.43
2018-11-06T14:37:13.873Z,3.50
2018-11-06T14:39:42.446Z,3.47
2018-11-06T14:42:11.193Z,3.20
2018-11-06T14:44:39.764Z,3.23
2018-11-06T14:47:08.378Z,3.03
2018-11-06T14:49:36.941Z,3.30
2018-11-06T14:52:06.037Z,3.60
2018-11-06T14:54:34.913Z,3.50
2018-11-06T14:57:03.452Z,3.30
2018-11-06T14:59:32.243Z,3.77
2018-11-06T15:02:00.783Z,3.20
2018-11-06T15:04:30.482Z,3.40
2018-11-06T15:06:59.624Z,3.07
2018-11-06T15:09:28.142Z,3.33
2018-11-06T15:11:56.679Z,3.20
2018-11-06T15:14:25.205Z,3.90
2018-11-06T15:16:53.720Z,3.30
2018-11-06T15:19:22.219Z,3.70
2018-11-06T15:21:50.765Z,3.60
2018-11-06T15:24:20.381Z,3.73
2018-11-06T15:26:49.082Z,3.80
2018-11-06T15:29:17.583Z,13.07
2018-11-06T15:31:46.064Z,13.23
2018-11-06T15:34:14.593Z,14.50
2018-11-06T15:36:43.661Z,8.00
2018-11-06T15:39:13.101Z,4.50
2018-11-06T15:41:42.243Z,4.40
2018-11-06T15:44:10.693Z,3.97
2018-11-06T15:46:39.181Z,14.77
2018-11-06T15:49:07.842Z,13.63
2018-11-06T15:51:37.049Z,9.77
2018-11-06T15:54:06.931Z,7.90
2018-11-06T15:56:35.435Z,4.40
2018-11-06T15:59:04.399Z,4.87
2018-11-06T16:01:32.947Z,4.50
2018-11-06T16:04:01.466Z,4.53
2018-11-06T16:06:30.756Z,4.60
2018-11-06T16:08:59.395Z,4.70
2018-11-06T16:11:27.864Z,4.60
2018-11-06T16:13:56.382Z,4.43
2018-11-06T16:16:25.721Z,4.13
2018-11-06T16:18:54.258Z,4.73
2018-11-06T16:21:23.455Z,4.63
2018-11-06T16:23:52.059Z,4.20
2018-11-06T16:26:21.065Z,4.30
2018-11-06T16:28:50.830Z,4.00
2018-11-06T16:31:19.354Z,4.23
2018-11-06T16:33:47.872Z,4.50
2018-11-06T16:36:16.370Z,5.07
2018-11-06T16:38:44.947Z,4.30
2018-11-06T16:41:13.476Z,5.13
2018-11-06T16:43:42.033Z,4.70
2018-11-06T16:46:10.554Z,5.40
2018-11-06T16:48:39.092Z,4.93
2018-11-06T16:51:07.829Z,5.17
2018-11-06T16:53:36.396Z,5.23
2018-11-06T16:56:05.248Z,5.33
2018-11-06T16:58:33.792Z,5.43
2018-11-06T17:01:03.409Z,5.27
2018-11-06T17:03:31.966Z,5.67
2018-11-06T17:06:00.496Z,5.37
2018-11-06T17:08:29.006Z,5.53
2018-11-06T17:10:58.288Z,5.70
2018-11-06T17:13:28.429Z,6.00
2018-11-06T17:15:57.180Z,6.33
2018-11-06T17:18:25.837Z,6.27
2018-11-06T17:20:54.430Z,6.23
2018-11-06T17:23:22.978Z,6.43
2018-11-06T17:25:53.081Z,5.60
2018-11-06T17:28:21.612Z,5.43
2018-11-06T17:30:50.117Z,6.67
2018-11-06T17:33:20.483Z,6.80
2018-11-06T17:35:49.391Z,6.40
2018-11-06T17:38:17.903Z,6.10
2018-11-06T17:40:47.120Z,7.03
2018-11-06T17:43:15.744Z,6.93
2018-11-06T17:45:44.269Z,7.00
2018-11-06T17:48:12.742Z,6.67
2018-11-06T17:50:41.244Z,7.03
2018-11-06T17:53:09.820Z,7.40
2018-11-06T17:55:38.754Z,7.03
2018-11-06T17:58:07.473Z,7.10
2018-11-06T18:00:36.026Z,6.60
2018-11-06T18:03:05.560Z,6.67
2018-11-06T18:05:34.069Z,6.70
2018-11-06T18:08:03.380Z,7.00
2018-11-06T18:10:31.967Z,6.67
2018-11-06T18:13:00.442Z,6.87
2018-11-06T18:15:29.166Z,7.33
2018-11-06T18:17:57.708Z,7.00
2018-11-06T18:20:26.734Z,7.60
2018-11-06T18:22:55.281Z,7.57
2018-11-06T18:25:23.918Z,7.03
2018-11-06T18:27:52.398Z,6.60
2018-11-06T18:30:20.972Z,6.90
2018-11-06T18:32:50.131Z,6.83
2018-11-06T18:35:19.131Z,7.17
2018-11-06T18:37:47.668Z,7.20
2018-11-06T18:40:18.751Z,6.03
2018-11-06T18:42:48.254Z,6.47
2018-11-06T18:45:16.954Z,7.07
2018-11-06T18:47:45.548Z,6.30
2018-11-06T18:50:15.354Z,6.90
2018-11-06T18:52:46.160Z,6.80
2018-11-06T18:55:14.723Z,6.67
2018-11-06T18:57:44.175Z,6.93
2018-11-06T19:00:15.408Z,7.43
2018-11-06T19:02:45.222Z,8.17
2018-11-06T19:05:15.229Z,6.27
2018-11-06T19:07:45.008Z,7.03
2018-11-06T19:10:14.568Z,6.60
2018-11-06T19:12:43.350Z,6.10
2018-11-06T19:15:14.526Z,6.33
2018-11-06T19:17:44.009Z,6.37
2018-11-06T19:20:13.103Z,6.30
2018-11-06T19:22:41.726Z,6.27
2018-11-06T19:25:11.302Z,5.90
2018-11-06T19:27:39.929Z,6.00
2018-11-06T19:30:11.185Z,6.57
2018-11-06T19:32:40.209Z,6.73
2018-11-06T19:35:08.944Z,6.40
2018-11-06T19:37:37.998Z,7.03
2018-11-06T19:40:08.733Z,6.70
2018-11-06T19:42:37.610Z,6.40
2018-11-06T19:45:06.961Z,7.20
2018-11-06T19:47:35.503Z,6.83
2018-11-06T19:50:04.240Z,6.70
2018-11-06T19:52:32.891Z,6.63
2018-11-06T19:55:01.455Z,6.60
2018-11-06T19:57:29.996Z,6.80
2018-11-06T19:59:58.630Z,6.20
2018-11-06T20:02:27.163Z,6.00
2018-11-06T20:04:55.717Z,6.07
2018-11-06T20:07:24.711Z,6.47
2018-11-06T20:09:53.246Z,6.13
2018-11-06T20:12:21.939Z,6.43
2018-11-06T20:14:50.462Z,6.47
2018-11-06T20:17:18.970Z,6.10
2018-11-06T20:19:47.500Z,6.13
2018-11-06T20:22:16.561Z,6.57
2018-11-06T20:24:45.110Z,6.93
2018-11-06T20:27:13.686Z,7.00
2018-11-06T20:29:42.311Z,7.00
2018-11-06T20:32:10.884Z,6.90
2018-11-06T20:34:39.399Z,6.57
2018-11-06T20:37:07.964Z,7.03
2018-11-06T20:39:36.605Z,6.93
2018-11-06T20:42:05.492Z,6.90
2018-11-06T20:44:34.019Z,7.37
2018-11-06T20:47:02.520Z,6.80
2018-11-06T20:49:31.167Z,6.27
2018-11-06T20:51:59.653Z,6.43
2018-11-06T20:54:28.214Z,6.30
2018-11-06T20:56:57.577Z,5.70
2018-11-06T20:59:26.115Z,5.73
2018-11-06T21:01:54.703Z,5.77
2018-11-06T21:04:23.200Z,5.80
2018-11-06T21:06:51.790Z,6.10
2018-11-06T21:09:20.249Z,6.00
2018-11-06T21:11:51.172Z,5.70
2018-11-06T21:14:19.663Z,5.10
2018-11-06T21:16:48.163Z,5.30
2018-11-06T21:19:17.998Z,5.07
2018-11-06T21:21:46.491Z,4.97
2018-11-06T21:24:15.009Z,5.07
2018-11-06T21:26:44.393Z,5.00
2018-11-06T21:29:15.601Z,4.73
2018-11-06T21:31:45.012Z,4.87
2018-11-06T21:34:14.610Z,4.87
2018-11-06T21:36:43.118Z,5.00
2018-11-06T21:39:13.945Z,4.67
2018-11-06T21:41:44.897Z,4.20
2018-11-06T21:44:14.430Z,4.20
2018-11-06T21:46:42.986Z,4.10
2018-11-06T21:49:12.050Z,4.40
2018-11-06T21:51:40.578Z,4.70
2018-11-06T21:54:10.409Z,4.10
2018-11-06T21:56:43.155Z,5.17
2018-11-06T21:59:11.648Z,5.93
2018-11-06T22:01:41.346Z,6.37
2018-11-06T22:04:09.852Z,5.60
2018-11-06T22:06:38.534Z,6.33
2018-11-06T22:09:11.760Z,5.57
2018-11-06T22:11:40.345Z,3.83
2018-11-06T22:14:11.062Z,3.77
2018-11-06T22:16:39.955Z,3.53
2018-11-06T22:19:09.921Z,3.43
2018-11-06T22:21:38.468Z,3.20
2018-11-06T22:24:07.129Z,3.10
2018-11-06T22:26:37.003Z,3.40
2018-11-06T22:29:07.303Z,3.10
2018-11-06T22:31:35.856Z,3.20
2018-11-06T22:34:06.928Z,3.20
2018-11-06T22:36:37.828Z,3.10
2018-11-06T22:39:09.188Z,2.90
2018-11-06T22:41:40.109Z,2.80
2018-11-06T22:44:09.687Z,2.63
2018-11-06T22:46:39.931Z,2.50
2018-11-06T22:49:09.756Z,2.57
2018-11-06T22:51:38.847Z,2.53
2018-11-06T22:54:08.880Z,2.40
2018-11-06T22:56:37.721Z,2.40
2018-11-06T22:59:07.469Z,2.50
2018-11-06T23:01:36.060Z,2.17
2018-11-06T23:04:05.169Z,2.40
2018-11-06T23:06:33.802Z,2.20
2018-11-06T23:09:02.246Z,2.10
2018-11-06T23:11:30.729Z,2.17
2018-11-06T23:13:59.233Z,2.33
2018-11-06T23:16:27.766Z,2.20
2018-11-06T23:18:56.237Z,2.17
2018-11-06T23:21:24.731Z,2.37
2018-11-06T23:23:53.248Z,2.27
2018-11-06T23:26:21.871Z,2.00
2018-11-06T23:28:51.681Z,2.07
2018-11-06T23:31:20.185Z,2.10
2018-11-06T23:33:58.306Z,2.17
2018-11-06T23:36:30.037Z,2.40
2018-11-06T23:38:58.534Z,2.30
2018-11-06T23:41:27.692Z,2.33
2018-11-06T23:44:02.056Z,2.00
2018-11-06T23:46:32.989Z,1.90
2018-11-06T23:49:01.490Z,1.97
2018-11-06T23:51:32.892Z,1.97
2018-11-06T23:54:01.404Z,2.03
2018-11-06T23:56:30.139Z,2.10
2018-11-06T23:59:00.924Z,2.00
